Strona główna
METAR-TAF:

METAR-TAF

Lotnisko :

Port lotniczy Madryt-Cuatro Vientos

Madryt-Cuatro Vientos, Hiszpania

Szerokość geograficzna: 40-23N, Długość geograficzna: 003-47W, wysokość: 690 m

Aktualna obserwacja pogody

Raport powstał 36 minut temu, godzina 08:30 UTC
Wiatr 2 kt z kierunków zmiennych
Temperatura 5°C
Wilgotność 100%
Ciśnienie 1026 hPa
Widzialność: 0250 m
mgła

METAR: LEVS 080830Z VRB02KT 0250 FG VV001 05/05 Q1026

czas: 10:06 (09:06 UTC)

Prognoza

Raport powstał 1 godzina i 6 minut temu, godzina 08:00 UTC
Prognoza ważna od 08 godzina 09 UTC do 08 godzina 18 UTC
Wiatr 5 kt z kierunków zmiennych
Widzialność 10 km lub więcej
Rozproszone chmury na wysokości 4000 ft
Prawdopodobieństwo 40% :
Przejściowo
od 08 godzina 09 UTC do 08 godzina 11 UTC
Widzialność: 0300 m
na wysokości 200 ft
mgła
Prawdopodobieństwo 30% :
Przejściowo
od 08 godzina 12 UTC do 08 godzina 18 UTC
Widzialność: 3000 m
deszcz, zamglenie

TAF: LEVS 080800Z 0809/0818 VRB05KT 9999 SCT040 PROB40 TEMPO 0809/0811 0300 FG VV002 PROB30 TEMPO 0812/0818 3000 RA BR

Obserwacja i prognoza pogody dla ponad 4000 lotnisk (raport METAR i TAF).

Dostępne stacje oznaczono żółtymi i czerwonymi punktami na mapie.

Najedź kursorem aby zobaczyć nazwę stacji.

Kliknij aby zobaczyć obserwacje i prognozy pogody.

Aby zmienić mapę: kliknij na zielony przycisk z czarnym krzyżykiem, aby powiększyć; na zielony przycisk z myślnikiem, aby pomniejszyć; na zielone strzałki, aby przejść do map sąsiednich.


METAR-TAF: